createdAt,value
2023-01-08T00:02:00.853Z,30.20
2023-01-08T00:04:14.524Z,42.20
2023-01-08T00:06:28.462Z,49.40
2023-01-08T00:08:42.025Z,53.50
2023-01-08T00:11:01.139Z,57.80
2023-01-08T00:13:15.502Z,51.10
2023-01-08T00:15:31.365Z,68.20
2023-01-08T00:17:45.833Z,84.80
2023-01-08T00:19:59.212Z,81.20
2023-01-08T00:22:13.693Z,97.20
2023-01-08T00:24:28.212Z,49.90
2023-01-08T00:26:41.658Z,62.60
2023-01-08T00:28:55.386Z,75.60
2023-01-08T00:31:09.442Z,62.10
2023-01-08T00:33:23.322Z,35.20
2023-01-08T00:35:36.554Z,52.90
2023-01-08T00:37:55.117Z,54.90
2023-01-08T00:40:08.908Z,37.50
2023-01-08T00:42:22.203Z,43.00
2023-01-08T00:44:35.673Z,39.40
2023-01-08T00:46:49.056Z,37.10
2023-01-08T00:49:02.369Z,29.80
2023-01-08T00:51:16.360Z,30.30
2023-01-08T00:53:30.655Z,27.20
2023-01-08T00:55:44.463Z,23.70
2023-01-08T00:57:59.496Z,22.10
2023-01-08T01:00:17.133Z,19.10
2023-01-08T01:02:30.815Z,18.80
2023-01-08T01:04:45.549Z,14.40
2023-01-08T01:06:59.148Z,15.00
2023-01-08T01:09:13.698Z,9.20
2023-01-08T01:11:28.291Z,8.30
2023-01-08T01:13:41.767Z,7.00
2023-01-08T01:16:03.408Z,5.80
2023-01-08T01:18:17.618Z,5.50
2023-01-08T01:20:31.499Z,6.90
2023-01-08T01:22:45.815Z,7.10
2023-01-08T01:24:59.281Z,6.40
2023-01-08T01:27:12.637Z,7.20
2023-01-08T01:29:27.213Z,6.40
2023-01-08T01:31:43.690Z,3.30
2023-01-08T01:33:57.583Z,2.00
2023-01-08T01:36:13.335Z,5.60
2023-01-08T01:38:27.220Z,5.90
2023-01-08T01:40:44.811Z,5.50
2023-01-08T01:42:57.894Z,3.60
2023-01-08T01:45:17.259Z,3.10
2023-01-08T01:47:34.980Z,1.20
2023-01-08T01:49:53.483Z,1.50
2023-01-08T01:52:09.413Z,3.90
2023-01-08T01:54:23.854Z,4.30
2023-01-08T01:56:38.331Z,2.00
2023-01-08T01:58:51.766Z,2.60
2023-01-08T02:01:08.271Z,0.90
2023-01-08T02:03:25.212Z,2.00
2023-01-08T02:05:44.612Z,2.30
2023-01-08T02:08:06.091Z,2.40
2023-01-08T02:10:25.934Z,2.20
2023-01-08T02:12:45.267Z,2.70
2023-01-08T02:15:18.731Z,3.10
2023-01-08T02:17:38.492Z,3.40
2023-01-08T02:19:55.302Z,6.80
2023-01-08T02:22:25.820Z,3.00
2023-01-08T02:24:55.202Z,3.90
2023-01-08T02:27:12.055Z,5.30
2023-01-08T02:29:29.762Z,6.70
2023-01-08T02:31:45.751Z,4.10
2023-01-08T02:33:59.522Z,3.70
2023-01-08T02:36:43.062Z,3.00
2023-01-08T02:39:05.454Z,2.50
2023-01-08T02:41:19.307Z,3.60
2023-01-08T02:43:40.167Z,2.10
2023-01-08T02:45:58.824Z,0.80
2023-01-08T02:48:16.521Z,2.80
2023-01-08T02:50:35.378Z,1.60
2023-01-08T02:52:57.137Z,3.60
2023-01-08T02:55:13.449Z,2.00
2023-01-08T02:57:28.450Z,3.20
2023-01-08T02:59:44.689Z,4.50
2023-01-08T03:01:59.154Z,1.90
2023-01-08T03:04:18.333Z,1.80
2023-01-08T03:06:32.130Z,3.90
2023-01-08T03:08:49.884Z,9.90
2023-01-08T03:11:07.687Z,2.60
2023-01-08T03:13:27.929Z,10.30
2023-01-08T03:15:46.932Z,2.40
2023-01-08T03:18:04.920Z,5.10
2023-01-08T03:20:21.692Z,14.50
2023-01-08T03:22:39.327Z,8.10
2023-01-08T03:24:54.967Z,18.60
2023-01-08T03:27:13.884Z,7.90
2023-01-08T03:29:32.165Z,5.90
2023-01-08T03:31:47.562Z,5.70
2023-01-08T03:34:02.967Z,3.40
2023-01-08T03:36:25.304Z,2.80
2023-01-08T03:38:42.741Z,1.40
2023-01-08T03:41:00.515Z,2.00
2023-01-08T03:43:13.931Z,2.30
2023-01-08T03:45:34.916Z,2.90
2023-01-08T03:47:51.169Z,2.00
2023-01-08T03:50:10.545Z,0.90
2023-01-08T03:52:31.122Z,3.20
2023-01-08T03:54:45.328Z,2.20
2023-01-08T03:57:00.099Z,1.70
2023-01-08T03:59:13.932Z,2.80
2023-01-08T04:01:27.856Z,0.70
2023-01-08T04:03:41.451Z,3.20
2023-01-08T04:05:56.746Z,2.60
2023-01-08T04:08:14.511Z,4.20
2023-01-08T04:10:27.801Z,2.10
2023-01-08T04:12:41.493Z,2.70
2023-01-08T04:14:55.411Z,2.80
2023-01-08T04:17:09.451Z,3.10
2023-01-08T04:19:23.092Z,0.90
2023-01-08T04:21:36.893Z,2.80
2023-01-08T04:23:50.854Z,2.90
2023-01-08T04:26:07.247Z,2.00
2023-01-08T04:28:20.944Z,3.10
2023-01-08T04:30:34.354Z,1.20
2023-01-08T04:32:47.770Z,3.20
2023-01-08T04:35:01.053Z,1.90
2023-01-08T04:37:14.420Z,1.10
2023-01-08T04:39:28.641Z,0.70
2023-01-08T04:41:42.646Z,1.30
2023-01-08T04:43:56.010Z,1.00
2023-01-08T04:46:10.711Z,0.50
2023-01-08T04:48:24.686Z,1.30
2023-01-08T04:50:38.024Z,0.70
2023-01-08T04:52:53.034Z,0.70
2023-01-08T04:55:06.571Z,1.60
2023-01-08T04:57:19.801Z,1.70
2023-01-08T04:59:32.941Z,0.90
2023-01-08T05:01:46.464Z,1.20
2023-01-08T05:04:03.876Z,0.60
2023-01-08T05:06:18.133Z,1.80
2023-01-08T05:08:31.605Z,1.00
2023-01-08T05:10:44.937Z,0.60
2023-01-08T05:13:01.211Z,3.90
2023-01-08T05:15:16.030Z,9.20
2023-01-08T05:17:29.481Z,2.50
2023-01-08T05:19:42.848Z,5.00
2023-01-08T05:21:56.026Z,0.70
2023-01-08T05:24:11.171Z,1.70
2023-01-08T05:26:24.650Z,1.10
2023-01-08T05:28:38.174Z,1.00
2023-01-08T05:30:52.825Z,1.40
2023-01-08T05:33:07.320Z,1.10
2023-01-08T05:35:21.018Z,10.80
2023-01-08T05:37:34.983Z,24.90
2023-01-08T05:39:49.174Z,25.60
2023-01-08T05:42:02.502Z,71.70
2023-01-08T05:44:16.689Z,47.40
2023-01-08T05:46:30.587Z,30.90
2023-01-08T05:48:43.813Z,24.00
2023-01-08T05:50:58.059Z,7.70
2023-01-08T05:53:14.459Z,26.00
2023-01-08T05:55:28.858Z,24.00
2023-01-08T05:57:41.921Z,12.60
2023-01-08T05:59:56.441Z,9.00
2023-01-08T06:02:10.986Z,5.50
2023-01-08T06:04:25.092Z,4.90
2023-01-08T06:06:38.394Z,6.10
2023-01-08T06:08:52.741Z,3.30
2023-01-08T06:11:10.256Z,3.20
2023-01-08T06:13:23.854Z,0.90
2023-01-08T06:15:37.049Z,0.80
2023-01-08T06:17:51.744Z,1.30
2023-01-08T06:20:05.411Z,0.80
2023-01-08T06:22:19.423Z,8.90
2023-01-08T06:24:32.779Z,2.20
2023-01-08T06:26:47.116Z,6.20
2023-01-08T06:29:00.736Z,13.40
2023-01-08T06:31:14.382Z,11.30
2023-01-08T06:33:27.777Z,7.00
2023-01-08T06:35:40.977Z,9.90
2023-01-08T06:37:54.180Z,9.00
2023-01-08T06:40:07.574Z,11.70
2023-01-08T06:42:20.851Z,17.20
2023-01-08T06:44:34.251Z,11.40
2023-01-08T06:46:48.192Z,17.80
2023-01-08T06:49:01.482Z,6.50
2023-01-08T06:51:15.531Z,6.60
2023-01-08T06:53:29.801Z,4.30
2023-01-08T06:55:47.535Z,4.60
2023-01-08T06:58:02.654Z,4.60
2023-01-08T07:00:18.522Z,4.30
2023-01-08T07:02:32.115Z,2.00
2023-01-08T07:04:45.491Z,0.80
2023-01-08T07:06:58.930Z,3.00
2023-01-08T07:09:14.211Z,0.90
2023-01-08T07:11:27.820Z,1.60
2023-01-08T07:13:41.371Z,1.70
2023-01-08T07:15:55.092Z,1.70
2023-01-08T07:18:10.183Z,1.90
2023-01-08T07:20:23.570Z,1.30
2023-01-08T07:22:37.605Z,1.00
2023-01-08T07:24:51.041Z,0.70
2023-01-08T07:27:04.904Z,1.70
2023-01-08T07:29:18.663Z,1.00
2023-01-08T07:31:31.935Z,0.60
2023-01-08T07:33:46.292Z,1.20
2023-01-08T07:36:02.551Z,0.70
2023-01-08T07:38:16.532Z,0.70
2023-01-08T07:40:29.970Z,0.40
2023-01-08T07:42:43.452Z,1.40
2023-01-08T07:44:57.497Z,0.50
2023-01-08T07:47:11.537Z,0.70
2023-01-08T07:49:25.410Z,0.60
2023-01-08T07:51:39.011Z,0.70
2023-01-08T07:53:54.044Z,0.70
2023-01-08T07:56:08.987Z,0.60
2023-01-08T07:58:22.571Z,0.50
2023-01-08T08:00:36.250Z,0.40
2023-01-08T08:02:50.770Z,0.70
2023-01-08T08:05:04.589Z,0.60
2023-01-08T08:07:18.003Z,0.60
2023-01-08T08:09:31.362Z,0.60
2023-01-08T08:11:45.211Z,2.30
2023-01-08T08:15:57.897Z,2.70
2023-01-08T08:18:11.659Z,0.70
2023-01-08T08:20:28.321Z,3.40
2023-01-08T08:22:42.530Z,0.40
2023-01-08T08:24:55.847Z,0.40
2023-01-08T08:27:09.532Z,0.80
2023-01-08T08:29:23.189Z,0.50
2023-01-08T08:31:36.972Z,0.40
2023-01-08T08:33:50.733Z,0.50
2023-01-08T08:36:05.455Z,1.50
2023-01-08T08:38:19.622Z,2.80
2023-01-08T08:40:33.968Z,2.00
2023-01-08T08:42:47.873Z,1.20
2023-01-08T08:45:01.740Z,0.40
2023-01-08T08:47:16.166Z,2.70
2023-01-08T08:49:30.000Z,1.60
2023-01-08T08:51:43.750Z,0.50
2023-01-08T08:53:57.211Z,0.40
2023-01-08T08:56:11.476Z,0.40
2023-01-08T08:58:25.113Z,1.20
2023-01-08T09:00:39.743Z,0.30
2023-01-08T09:02:56.120Z,0.40
2023-01-08T09:05:10.892Z,0.30
2023-01-08T09:07:27.778Z,0.50
2023-01-08T09:09:43.080Z,0.40
2023-01-08T09:11:56.793Z,1.00
2023-01-08T09:14:10.418Z,1.70
2023-01-08T09:16:23.866Z,1.30
2023-01-08T09:18:38.056Z,0.40
2023-01-08T09:20:52.297Z,0.40
2023-01-08T09:23:08.366Z,0.60
2023-01-08T09:25:22.988Z,0.70
2023-01-08T09:27:36.582Z,1.00
2023-01-08T09:29:54.370Z,0.40
2023-01-08T09:32:08.903Z,0.30
2023-01-08T09:34:23.371Z,0.30
2023-01-08T09:36:36.893Z,2.40
2023-01-08T09:38:50.371Z,0.30
2023-01-08T09:41:05.651Z,0.30
2023-01-08T09:43:24.100Z,0.70
2023-01-08T09:45:39.145Z,0.30
2023-01-08T09:47:53.495Z,0.30
2023-01-08T09:50:10.551Z,0.30
2023-01-08T09:52:23.851Z,0.30
2023-01-08T09:54:38.090Z,0.30
2023-01-08T09:56:53.001Z,1.80
2023-01-08T09:59:08.962Z,0.30
2023-01-08T10:01:24.603Z,0.30
2023-01-08T10:03:46.184Z,0.30
2023-01-08T10:06:00.250Z,0.50
2023-01-08T10:08:18.557Z,0.30
2023-01-08T10:10:35.333Z,0.30
2023-01-08T10:12:49.617Z,0.40
2023-01-08T10:15:06.079Z,2.70
2023-01-08T10:17:28.414Z,1.20
2023-01-08T10:19:42.290Z,0.30
2023-01-08T10:21:56.170Z,0.40
2023-01-08T10:24:10.011Z,0.30
2023-01-08T10:26:32.307Z,0.30
2023-01-08T10:28:45.651Z,0.30
2023-01-08T10:31:03.337Z,0.40
2023-01-08T10:33:23.691Z,0.40
2023-01-08T10:35:41.049Z,0.30
2023-01-08T10:37:55.610Z,0.30
2023-01-08T10:40:23.833Z,0.30
2023-01-08T10:42:40.733Z,0.60
2023-01-08T10:45:06.931Z,0.40
2023-01-08T10:47:23.892Z,0.30
2023-01-08T10:49:43.040Z,0.40
2023-01-08T10:51:59.937Z,0.30
2023-01-08T10:54:31.931Z,0.30
2023-01-08T10:56:49.371Z,0.30
2023-01-08T10:59:03.667Z,0.30
2023-01-08T11:01:21.487Z,0.40
2023-01-08T11:03:36.444Z,0.30
2023-01-08T11:05:51.529Z,0.40
2023-01-08T11:08:07.048Z,0.30
2023-01-08T11:10:33.699Z,1.20
2023-01-08T11:12:48.209Z,0.40
2023-01-08T11:15:01.369Z,0.50
2023-01-08T11:17:17.731Z,0.40
2023-01-08T11:19:33.279Z,0.30
2023-01-08T11:21:57.889Z,0.30
2023-01-08T11:24:23.211Z,0.70
2023-01-08T11:26:38.574Z,0.30
2023-01-08T11:29:00.094Z,0.30
2023-01-08T11:31:22.711Z,0.30
2023-01-08T11:33:40.341Z,3.00
2023-01-08T11:35:57.931Z,1.90
2023-01-08T11:38:15.134Z,0.30
2023-01-08T11:40:37.217Z,0.30
2023-01-08T11:43:14.911Z,0.40
2023-01-08T11:45:38.082Z,0.30
2023-01-08T11:48:08.937Z,0.30
2023-01-08T11:50:26.203Z,0.40
2023-01-08T11:52:56.064Z,0.40
2023-01-08T11:55:32.732Z,0.30
2023-01-08T11:58:01.051Z,0.30
2023-01-08T12:00:35.771Z,0.30
2023-01-08T12:02:58.425Z,2.30
2023-01-08T12:05:36.534Z,0.40
2023-01-08T12:07:58.652Z,0.90
2023-01-08T12:10:18.752Z,0.40
2023-01-08T12:12:47.093Z,0.40
2023-01-08T12:15:11.128Z,0.50
2023-01-08T12:17:56.093Z,0.40
2023-01-08T12:20:24.645Z,1.20
2023-01-08T12:22:48.543Z,0.50
2023-01-08T12:25:24.903Z,0.30
2023-01-08T12:27:56.708Z,0.30
2023-01-08T12:30:22.568Z,0.30
2023-01-08T12:32:39.892Z,0.40
2023-01-08T12:35:07.161Z,0.50
2023-01-08T12:37:28.330Z,0.30
2023-01-08T12:39:51.781Z,0.40
2023-01-08T12:42:17.382Z,0.30
2023-01-08T12:44:34.534Z,0.40
2023-01-08T12:46:49.142Z,0.30
2023-01-08T12:49:04.042Z,0.40
2023-01-08T12:51:23.895Z,0.30
2023-01-08T12:53:47.411Z,0.50
2023-01-08T12:56:09.816Z,0.40
2023-01-08T12:58:42.570Z,0.40
2023-01-08T13:01:08.200Z,1.20
2023-01-08T13:03:28.616Z,0.30
2023-01-08T13:05:43.614Z,0.40
2023-01-08T13:08:00.296Z,2.10
2023-01-08T13:10:23.920Z,0.40
2023-01-08T13:12:40.463Z,0.30
2023-01-08T13:14:56.068Z,1.10
2023-01-08T13:17:19.661Z,0.90
2023-01-08T13:19:38.195Z,1.70
2023-01-08T13:21:59.282Z,0.30
2023-01-08T13:24:35.687Z,0.30
2023-01-08T13:26:48.962Z,1.60
2023-01-08T13:29:26.643Z,0.40
2023-01-08T13:31:46.866Z,1.30
2023-01-08T13:34:00.368Z,0.40
2023-01-08T13:36:30.798Z,1.70
2023-01-08T13:38:44.462Z,0.30
2023-01-08T13:41:00.547Z,0.30
2023-01-08T13:43:19.813Z,0.40
2023-01-08T13:45:35.268Z,0.30
2023-01-08T13:47:51.412Z,0.30
2023-01-08T13:50:08.567Z,0.30
2023-01-08T13:52:44.559Z,0.30
2023-01-08T13:54:58.452Z,0.30
2023-01-08T13:57:19.253Z,0.70
2023-01-08T13:59:40.864Z,0.30
2023-01-08T14:02:01.676Z,0.30
2023-01-08T14:04:23.291Z,0.30
2023-01-08T14:06:38.290Z,0.30
2023-01-08T14:08:59.502Z,0.30
2023-01-08T14:11:13.452Z,0.30
2023-01-08T14:13:31.821Z,0.30
2023-01-08T14:15:45.612Z,0.40
2023-01-08T14:18:00.692Z,0.30
2023-01-08T14:20:23.891Z,0.60
2023-01-08T14:22:39.003Z,2.10
2023-01-08T14:24:58.295Z,0.30
2023-01-08T14:27:27.366Z,0.40
2023-01-08T14:29:48.854Z,0.50
2023-01-08T14:32:04.455Z,0.50
2023-01-08T14:34:20.134Z,1.60
2023-01-08T14:36:34.775Z,0.50
2023-01-08T14:38:52.227Z,0.30
2023-01-08T14:41:11.293Z,0.50
2023-01-08T14:43:25.142Z,0.30
2023-01-08T14:45:40.449Z,0.40
2023-01-08T14:47:56.330Z,0.40
2023-01-08T14:50:20.960Z,0.60
2023-01-08T14:52:34.414Z,0.40
2023-01-08T14:54:49.177Z,0.80
2023-01-08T14:57:04.292Z,0.40
2023-01-08T14:59:22.620Z,1.70
2023-01-08T15:01:38.005Z,2.90
2023-01-08T15:03:53.532Z,2.00
2023-01-08T15:06:08.480Z,0.90
2023-01-08T15:08:35.793Z,0.40
2023-01-08T15:10:49.088Z,0.60
2023-01-08T15:13:08.851Z,2.10
2023-01-08T15:15:29.081Z,1.20
2023-01-08T15:17:43.227Z,0.50
2023-01-08T15:19:59.493Z,2.50
2023-01-08T15:22:23.171Z,1.30
2023-01-08T15:24:40.657Z,1.50
2023-01-08T15:26:54.519Z,0.70
2023-01-08T15:29:09.030Z,0.80
2023-01-08T15:31:33.074Z,1.40
2023-01-08T15:33:48.204Z,1.10
2023-01-08T15:36:02.028Z,1.40
2023-01-08T15:38:16.084Z,0.60
2023-01-08T15:40:29.943Z,1.00
2023-01-08T15:43:00.770Z,2.80
2023-01-08T15:45:18.880Z,0.50
2023-01-08T15:47:33.080Z,1.30
2023-01-08T15:49:46.160Z,0.40
2023-01-08T15:51:59.449Z,1.40
2023-01-08T15:54:15.220Z,0.40
2023-01-08T15:56:29.263Z,1.50
2023-01-08T15:58:42.969Z,2.50
2023-01-08T16:00:56.716Z,0.90
2023-01-08T16:03:11.130Z,1.50
2023-01-08T16:05:27.590Z,2.00
2023-01-08T16:07:40.891Z,0.80
2023-01-08T16:09:54.482Z,1.90
2023-01-08T16:12:08.410Z,1.90
2023-01-08T16:14:22.336Z,3.30
2023-01-08T16:16:35.573Z,1.90
2023-01-08T16:18:49.180Z,3.30
2023-01-08T16:21:08.928Z,0.50
2023-01-08T16:23:22.409Z,2.40
2023-01-08T16:25:35.845Z,1.50
2023-01-08T16:27:52.969Z,1.10
2023-01-08T16:30:06.610Z,1.30
2023-01-08T16:32:20.772Z,1.40
2023-01-08T16:34:35.020Z,0.80
2023-01-08T16:36:48.974Z,1.60
2023-01-08T16:39:02.296Z,0.60
2023-01-08T16:41:15.889Z,1.70
2023-01-08T16:43:29.880Z,0.60
2023-01-08T16:45:51.746Z,2.30
2023-01-08T16:48:05.549Z,1.60
2023-01-08T16:50:19.930Z,1.70
2023-01-08T16:52:33.203Z,0.80
2023-01-08T16:54:47.530Z,1.70
2023-01-08T16:57:01.132Z,2.60
2023-01-08T16:59:22.673Z,2.40
2023-01-08T17:01:37.451Z,0.60
2023-01-08T17:03:50.800Z,4.30
2023-01-08T17:06:09.843Z,12.30
2023-01-08T17:08:23.559Z,25.30
2023-01-08T17:10:36.887Z,15.50
2023-01-08T17:12:51.440Z,9.30
2023-01-08T17:15:04.769Z,9.50
2023-01-08T17:17:18.249Z,7.40
2023-01-08T17:19:31.899Z,7.00
2023-01-08T17:21:47.050Z,9.00
2023-01-08T17:24:00.538Z,3.10
2023-01-08T17:26:17.874Z,2.50
2023-01-08T17:28:32.808Z,1.10
2023-01-08T17:30:46.012Z,3.40
2023-01-08T17:32:59.303Z,0.50
2023-01-08T17:35:13.854Z,0.60
2023-01-08T17:37:27.363Z,0.40
2023-01-08T17:39:40.534Z,1.50
2023-01-08T17:42:10.373Z,1.70
2023-01-08T17:44:27.610Z,0.50
2023-01-08T17:46:43.403Z,1.80
2023-01-08T17:48:56.974Z,21.70
2023-01-08T17:51:15.624Z,29.20
2023-01-08T17:53:29.220Z,9.70
2023-01-08T17:55:44.375Z,8.70
2023-01-08T17:57:58.632Z,10.00
2023-01-08T18:00:13.608Z,10.00
2023-01-08T18:02:27.658Z,8.90
2023-01-08T18:04:42.010Z,22.20
2023-01-08T18:06:55.851Z,14.00
2023-01-08T18:09:10.782Z,16.80
2023-01-08T18:11:24.123Z,13.40
2023-01-08T18:13:37.797Z,20.40
2023-01-08T18:15:51.971Z,16.20
2023-01-08T18:18:05.534Z,20.70
2023-01-08T18:20:20.492Z,30.10
2023-01-08T18:22:34.344Z,27.60
2023-01-08T18:24:48.171Z,21.50
2023-01-08T18:27:02.010Z,35.70
2023-01-08T18:29:16.654Z,38.40
2023-01-08T18:31:30.755Z,21.20
2023-01-08T18:33:44.492Z,23.60
2023-01-08T18:35:58.255Z,37.80
2023-01-08T18:38:16.904Z,25.80
2023-01-08T18:40:31.332Z,50.90
2023-01-08T18:42:44.503Z,48.10
2023-01-08T18:44:57.921Z,47.60
2023-01-08T18:47:13.821Z,44.40
2023-01-08T18:49:28.772Z,34.20
2023-01-08T18:51:42.057Z,58.60
2023-01-08T18:53:55.665Z,60.80
2023-01-08T18:56:15.663Z,51.20
2023-01-08T18:58:30.495Z,51.20
2023-01-08T19:00:44.061Z,52.70
2023-01-08T19:02:58.309Z,63.20
2023-01-08T19:05:15.775Z,62.40
2023-01-08T19:07:29.903Z,67.10
2023-01-08T19:09:43.242Z,69.30
2023-01-08T19:11:57.071Z,71.40
2023-01-08T19:14:10.851Z,66.20
2023-01-08T19:16:25.306Z,78.60
2023-01-08T19:18:38.881Z,60.20
2023-01-08T19:20:52.422Z,64.30
2023-01-08T19:23:08.171Z,64.30
2023-01-08T19:25:26.250Z,66.50
2023-01-08T19:27:40.335Z,76.00
2023-01-08T19:29:54.059Z,43.50
2023-01-08T19:32:08.134Z,81.30
2023-01-08T19:34:22.061Z,62.70
2023-01-08T19:36:35.551Z,50.70
2023-01-08T19:38:50.691Z,55.60
2023-01-08T19:41:05.741Z,57.50
2023-01-08T19:43:36.332Z,44.60
2023-01-08T19:45:50.165Z,44.50
2023-01-08T19:48:03.522Z,63.30
2023-01-08T19:50:19.739Z,66.10
2023-01-08T19:52:33.451Z,65.80
2023-01-08T19:54:46.731Z,53.00
2023-01-08T19:57:00.140Z,55.80
2023-01-08T19:59:13.420Z,61.90
2023-01-08T20:01:28.920Z,51.60
2023-01-08T20:03:43.920Z,57.30
2023-01-08T20:05:57.663Z,62.70
2023-01-08T20:08:12.852Z,55.10
2023-01-08T20:10:26.682Z,62.50
2023-01-08T20:12:40.868Z,69.00
2023-01-08T20:14:54.816Z,54.00
2023-01-08T20:17:08.542Z,63.00
2023-01-08T20:19:22.889Z,62.40
2023-01-08T20:21:40.414Z,49.70
2023-01-08T20:23:59.372Z,63.90
2023-01-08T20:26:15.676Z,67.90
2023-01-08T20:28:29.542Z,60.50
2023-01-08T20:30:43.441Z,56.40
2023-01-08T20:32:56.852Z,48.50
2023-01-08T20:35:11.944Z,58.90
2023-01-08T20:37:26.857Z,46.30
2023-01-08T20:39:40.202Z,47.40
2023-01-08T20:41:55.879Z,56.20
2023-01-08T20:44:17.346Z,53.10
2023-01-08T20:46:32.720Z,48.00
2023-01-08T20:48:47.992Z,55.30
2023-01-08T20:51:06.091Z,64.30
2023-01-08T20:53:19.769Z,64.50
2023-01-08T20:55:33.394Z,52.60
2023-01-08T20:57:46.572Z,62.70
2023-01-08T21:00:00.567Z,38.50
2023-01-08T21:02:14.707Z,48.80
2023-01-08T21:04:28.440Z,41.40
2023-01-08T21:06:42.094Z,41.60
2023-01-08T21:08:57.655Z,42.50
2023-01-08T21:11:13.055Z,42.50
2023-01-08T21:13:27.134Z,50.40
2023-01-08T21:15:41.831Z,32.30
2023-01-08T21:17:55.291Z,40.30
2023-01-08T21:20:10.319Z,36.20
2023-01-08T21:22:23.548Z,29.40
2023-01-08T21:24:36.844Z,32.20
2023-01-08T21:26:50.561Z,29.90
2023-01-08T21:29:04.232Z,23.80
2023-01-08T21:31:20.422Z,30.80
2023-01-08T21:33:33.732Z,24.80
2023-01-08T21:35:46.908Z,35.40
2023-01-08T21:38:00.332Z,26.00
2023-01-08T21:40:16.594Z,28.70
2023-01-08T21:42:46.859Z,24.80
2023-01-08T21:45:13.815Z,45.70
2023-01-08T21:47:27.452Z,41.50
2023-01-08T21:49:41.543Z,28.40
2023-01-08T21:52:15.030Z,24.30
2023-01-08T21:54:28.850Z,43.90
2023-01-08T21:56:42.092Z,37.30
2023-01-08T21:58:55.493Z,26.20
2023-01-08T22:01:15.467Z,25.20
2023-01-08T22:03:30.200Z,38.50
2023-01-08T22:05:44.451Z,32.60
2023-01-08T22:07:58.060Z,33.60
2023-01-08T22:10:16.577Z,31.70
2023-01-08T22:12:31.411Z,45.30
2023-01-08T22:14:46.190Z,38.30
2023-01-08T22:17:00.188Z,37.90
2023-01-08T22:19:13.733Z,20.00
2023-01-08T22:21:27.512Z,34.10
2023-01-08T22:23:42.139Z,36.10
2023-01-08T22:25:55.611Z,39.30
2023-01-08T22:28:10.290Z,33.90
2023-01-08T22:30:24.372Z,28.40
2023-01-08T22:32:37.961Z,26.80
2023-01-08T22:34:51.752Z,43.80
2023-01-08T22:37:05.891Z,44.30
2023-01-08T22:39:19.460Z,34.00
2023-01-08T22:41:32.858Z,29.30
2023-01-08T22:43:46.343Z,39.40
2023-01-08T22:46:03.565Z,47.70
2023-01-08T22:48:17.051Z,36.90
2023-01-08T22:50:30.721Z,36.30
2023-01-08T22:52:44.335Z,43.10
2023-01-08T22:54:59.321Z,54.90
2023-01-08T22:57:14.113Z,41.40
2023-01-08T22:59:27.652Z,64.40
2023-01-08T23:01:41.867Z,41.80
2023-01-08T23:03:59.039Z,52.20
2023-01-08T23:06:13.153Z,41.00
2023-01-08T23:08:26.933Z,51.40
2023-01-08T23:10:41.657Z,51.50
2023-01-08T23:12:56.092Z,66.80
2023-01-08T23:15:13.379Z,51.50
2023-01-08T23:17:26.901Z,44.70
2023-01-08T23:19:40.708Z,48.70
2023-01-08T23:21:55.184Z,55.70
2023-01-08T23:24:09.073Z,51.00
2023-01-08T23:26:24.492Z,46.10
2023-01-08T23:28:39.464Z,42.80
2023-01-08T23:30:52.823Z,36.90
2023-01-08T23:33:07.216Z,27.50
2023-01-08T23:35:21.180Z,32.20
2023-01-08T23:37:35.332Z,21.10
2023-01-08T23:39:49.099Z,25.50
2023-01-08T23:42:03.001Z,41.90
2023-01-08T23:44:18.661Z,20.30
2023-01-08T23:46:32.806Z,20.90
2023-01-08T23:48:46.533Z,21.70
2023-01-08T23:51:00.119Z,29.20
2023-01-08T23:53:13.840Z,26.10
2023-01-08T23:55:27.311Z,19.00
2023-01-08T23:57:40.698Z,25.50
2023-01-08T23:59:54.042Z,11.60
